createdAt,value
2018-12-17T00:01:14.162Z,36.93
2018-12-17T00:03:44.861Z,39.33
2018-12-17T00:06:15.510Z,36.07
2018-12-17T00:08:44.358Z,40.90
2018-12-17T00:11:13.203Z,34.77
2018-12-17T00:13:41.958Z,37.77
2018-12-17T00:16:10.726Z,35.70
2018-12-17T00:18:39.407Z,40.20
2018-12-17T00:21:08.216Z,38.80
2018-12-17T00:23:36.949Z,38.23
2018-12-17T00:26:05.659Z,38.10
2018-12-17T00:28:34.378Z,34.23
2018-12-17T00:31:03.106Z,36.83
2018-12-17T00:33:32.983Z,36.57
2018-12-17T00:36:01.722Z,37.67
2018-12-17T00:38:30.490Z,33.97
2018-12-17T00:40:59.203Z,38.37
2018-12-17T00:43:28.314Z,34.43
2018-12-17T00:45:57.122Z,39.50
2018-12-17T00:48:26.130Z,52.33
2018-12-17T00:50:54.906Z,45.00
2018-12-17T00:53:23.733Z,38.73
2018-12-17T00:55:52.532Z,36.43
2018-12-17T00:58:21.319Z,35.53
2018-12-17T01:00:50.110Z,39.50
2018-12-17T01:03:18.881Z,40.27
2018-12-17T01:05:47.543Z,37.23
2018-12-17T01:08:16.285Z,37.10
2018-12-17T01:10:45.108Z,37.43
2018-12-17T01:13:13.924Z,35.43
2018-12-17T01:15:42.665Z,36.57
2018-12-17T01:18:11.627Z,33.53
2018-12-17T01:20:40.343Z,38.77
2018-12-17T01:23:09.158Z,36.90
2018-12-17T01:25:37.875Z,44.93
2018-12-17T01:28:06.642Z,41.50
2018-12-17T01:30:35.422Z,38.53
2018-12-17T01:33:04.300Z,39.13
2018-12-17T01:35:33.112Z,44.20
2018-12-17T01:38:01.915Z,42.00
2018-12-17T01:40:30.694Z,38.70
2018-12-17T01:42:59.550Z,41.50
2018-12-17T01:45:28.343Z,44.20
2018-12-17T01:47:56.999Z,36.40
2018-12-17T01:50:25.767Z,43.33
2018-12-17T01:52:54.538Z,42.47
2018-12-17T01:55:23.331Z,40.10
2018-12-17T01:57:52.043Z,38.13
2018-12-17T02:00:20.918Z,36.90
2018-12-17T02:02:49.822Z,44.33
2018-12-17T02:05:18.617Z,38.87
2018-12-17T02:07:47.387Z,39.80
2018-12-17T02:10:16.224Z,42.30
2018-12-17T02:12:45.028Z,42.70
2018-12-17T02:15:13.838Z,39.77
2018-12-17T02:17:42.547Z,37.33
2018-12-17T02:20:11.393Z,43.60
2018-12-17T02:22:40.193Z,39.07
2018-12-17T02:25:08.990Z,39.80
2018-12-17T02:27:37.881Z,40.50
2018-12-17T02:30:06.886Z,38.87
2018-12-17T02:32:37.556Z,40.37
2018-12-17T02:35:06.358Z,40.93
2018-12-17T02:37:35.282Z,43.60
2018-12-17T02:40:05.021Z,38.80
2018-12-17T02:42:33.675Z,40.97
2018-12-17T02:45:02.471Z,41.63
2018-12-17T02:47:32.314Z,43.07
2018-12-17T02:50:01.033Z,42.67
2018-12-17T02:52:29.779Z,46.07
2018-12-17T02:54:58.619Z,40.37
2018-12-17T02:57:27.476Z,42.37
2018-12-17T02:59:56.250Z,40.30
2018-12-17T03:02:25.063Z,42.43
2018-12-17T03:04:53.779Z,44.20
2018-12-17T03:07:22.603Z,47.80
2018-12-17T03:09:51.267Z,52.83
2018-12-17T03:12:20.066Z,44.90
2018-12-17T03:14:48.801Z,45.40
2018-12-17T03:17:17.607Z,56.67
2018-12-17T03:19:46.277Z,43.03
2018-12-17T03:22:15.129Z,49.40
2018-12-17T03:24:43.915Z,42.93
2018-12-17T03:27:12.593Z,46.70
2018-12-17T03:29:41.315Z,47.60
2018-12-17T03:32:09.986Z,45.83
2018-12-17T03:34:38.769Z,49.70
2018-12-17T03:37:07.533Z,51.03
2018-12-17T03:39:36.192Z,53.73
2018-12-17T03:42:05.199Z,63.20
2018-12-17T03:44:33.964Z,56.30
2018-12-17T03:47:02.691Z,53.20
2018-12-17T03:49:31.444Z,50.93
2018-12-17T03:52:00.243Z,51.43
2018-12-17T03:54:29.014Z,52.83
2018-12-17T03:56:57.819Z,47.40
2018-12-17T03:59:26.529Z,57.37
2018-12-17T04:01:55.288Z,50.33
2018-12-17T04:04:24.100Z,59.23
2018-12-17T04:06:52.838Z,48.53
2018-12-17T04:09:21.555Z,53.13
2018-12-17T04:11:50.318Z,54.63
2018-12-17T04:14:19.046Z,51.00
2018-12-17T04:16:47.815Z,55.20
2018-12-17T04:19:16.571Z,57.10
2018-12-17T04:21:45.259Z,54.33
2018-12-17T04:24:13.995Z,55.20
2018-12-17T04:26:44.675Z,57.03
2018-12-17T04:29:13.459Z,59.00
2018-12-17T04:31:42.251Z,63.37
2018-12-17T04:34:10.991Z,62.27
2018-12-17T04:36:39.658Z,62.27
2018-12-17T04:39:08.439Z,58.70
2018-12-17T04:41:37.178Z,67.67
2018-12-17T04:44:05.998Z,58.50
2018-12-17T04:46:34.754Z,66.43
2018-12-17T04:49:03.559Z,55.10
2018-12-17T04:51:32.526Z,63.50
2018-12-17T04:54:01.261Z,67.30
2018-12-17T04:56:29.999Z,64.97
2018-12-17T04:58:58.668Z,61.07
2018-12-17T05:01:27.380Z,69.47
2018-12-17T05:03:56.114Z,68.00
2018-12-17T05:06:24.842Z,65.87
2018-12-17T05:08:53.519Z,63.00
2018-12-17T05:11:22.250Z,75.20
2018-12-17T05:13:50.927Z,63.30
2018-12-17T05:16:19.738Z,76.10
2018-12-17T05:18:48.517Z,77.37
2018-12-17T05:21:17.353Z,65.73
2018-12-17T05:23:46.107Z,62.13
2018-12-17T05:26:14.903Z,64.90
2018-12-17T05:28:43.626Z,69.37
2018-12-17T05:31:12.414Z,72.70
2018-12-17T05:33:41.287Z,70.60
2018-12-17T05:36:10.070Z,75.63
2018-12-17T05:38:38.743Z,72.07
2018-12-17T05:41:07.415Z,69.07
2018-12-17T05:43:36.183Z,69.70
2018-12-17T05:46:04.966Z,69.27
2018-12-17T05:48:33.651Z,72.73
2018-12-17T05:51:02.429Z,65.27
2018-12-17T05:53:31.102Z,74.50
2018-12-17T05:55:59.755Z,74.97
2018-12-17T05:58:28.558Z,73.13
2018-12-17T06:00:57.410Z,73.87
2018-12-17T06:03:26.174Z,78.30
2018-12-17T06:05:54.950Z,76.27
2018-12-17T06:08:23.630Z,76.53
2018-12-17T06:10:52.355Z,67.30
2018-12-17T06:13:21.036Z,72.53
2018-12-17T06:15:49.862Z,76.67
2018-12-17T06:18:18.598Z,72.50
2018-12-17T06:20:47.778Z,75.97
2018-12-17T06:23:16.431Z,69.40
2018-12-17T06:25:45.175Z,64.47
2018-12-17T06:28:13.890Z,74.80
2018-12-17T06:30:42.590Z,62.47
2018-12-17T06:33:15.622Z,80.03
2018-12-17T06:35:42.084Z,77.63
2018-12-17T06:38:10.795Z,74.40
2018-12-17T06:40:39.558Z,78.87
2018-12-17T06:43:08.337Z,65.30
2018-12-17T06:45:37.082Z,70.97
2018-12-17T06:48:05.914Z,71.30
2018-12-17T06:50:34.613Z,63.27
2018-12-17T06:53:03.286Z,68.77
2018-12-17T06:55:32.022Z,73.43
2018-12-17T06:58:01.107Z,68.20
2018-12-17T07:00:29.825Z,71.07
2018-12-17T07:02:58.518Z,65.60
2018-12-17T07:05:27.310Z,74.83
2018-12-17T07:07:55.970Z,77.43
2018-12-17T07:10:24.644Z,75.73
2018-12-17T07:12:53.303Z,68.03
2018-12-17T07:15:21.986Z,67.67
2018-12-17T07:17:50.664Z,62.70
2018-12-17T07:20:19.523Z,78.60
2018-12-17T07:22:48.190Z,72.17
2018-12-17T07:25:16.927Z,70.43
2018-12-17T07:27:45.709Z,74.63
2018-12-17T07:30:14.392Z,72.60
2018-12-17T07:32:43.101Z,69.90
2018-12-17T07:35:11.896Z,67.60
2018-12-17T07:37:40.690Z,79.83
2018-12-17T07:40:09.475Z,62.63
2018-12-17T07:42:38.146Z,65.97
2018-12-17T07:45:07.146Z,67.80
2018-12-17T07:47:35.846Z,70.53
2018-12-17T07:50:05.718Z,67.03
2018-12-17T07:52:34.660Z,71.30
2018-12-17T07:55:03.655Z,70.43
2018-12-17T07:57:32.479Z,67.57
2018-12-17T08:00:01.163Z,69.67
2018-12-17T08:02:31.242Z,65.13
2018-12-17T08:04:59.890Z,66.67
2018-12-17T08:07:29.652Z,72.47
2018-12-17T08:09:58.297Z,73.77
2018-12-17T08:12:27.120Z,69.80
2018-12-17T08:14:55.874Z,67.83
2018-12-17T08:17:24.651Z,74.20
2018-12-17T08:19:53.511Z,68.77
2018-12-17T08:22:22.667Z,63.20
2018-12-17T08:24:51.432Z,68.00
2018-12-17T08:27:20.237Z,72.07
2018-12-17T08:29:48.965Z,68.50
2018-12-17T08:32:17.643Z,63.40
2018-12-17T08:34:46.375Z,77.97
2018-12-17T08:37:15.187Z,77.10
2018-12-17T08:39:43.982Z,78.83
2018-12-17T08:42:12.701Z,73.63
2018-12-17T08:44:41.727Z,93.90
2018-12-17T08:47:10.428Z,82.77
2018-12-17T08:49:39.198Z,80.07
2018-12-17T08:52:07.911Z,91.97
2018-12-17T08:54:36.607Z,93.63
2018-12-17T08:57:05.467Z,82.37
2018-12-17T08:59:34.186Z,93.07
2018-12-17T09:02:02.969Z,79.37
2018-12-17T09:04:31.770Z,87.33
2018-12-17T09:07:00.498Z,86.23
2018-12-17T09:09:29.215Z,76.60
2018-12-17T09:11:57.993Z,95.23
2018-12-17T09:14:26.749Z,79.00
2018-12-17T09:16:55.463Z,91.17
2018-12-17T09:19:24.174Z,84.57
2018-12-17T09:21:52.928Z,87.63
2018-12-17T09:24:21.729Z,80.87
2018-12-17T09:26:50.526Z,79.83
2018-12-17T09:29:19.295Z,76.27
2018-12-17T09:31:48.051Z,87.23
2018-12-17T09:34:16.822Z,92.67
2018-12-17T09:36:45.562Z,85.10
2018-12-17T09:39:14.306Z,93.07
2018-12-17T09:41:43.290Z,90.17
2018-12-17T09:44:12.015Z,77.67
2018-12-17T09:46:40.916Z,80.77
2018-12-17T09:49:09.839Z,75.27
2018-12-17T09:51:38.580Z,83.13
2018-12-17T09:54:07.261Z,92.73
2018-12-17T09:56:36.018Z,85.10
2018-12-17T09:59:04.793Z,89.33
2018-12-17T10:01:33.549Z,86.60
2018-12-17T10:04:02.279Z,85.57
2018-12-17T10:06:31.143Z,84.00
2018-12-17T10:09:01.139Z,87.37
2018-12-17T10:11:32.061Z,78.30
2018-12-17T10:14:00.790Z,94.10
2018-12-17T10:16:29.619Z,94.53
2018-12-17T10:18:58.433Z,90.97
2018-12-17T10:21:27.202Z,85.43
2018-12-17T10:23:55.886Z,84.90
2018-12-17T10:26:24.784Z,86.27
2018-12-17T10:28:53.504Z,87.97
2018-12-17T10:31:22.288Z,82.57
2018-12-17T10:33:51.002Z,89.83
2018-12-17T10:36:19.750Z,94.53
2018-12-17T10:38:48.407Z,87.90
2018-12-17T10:41:17.167Z,87.20
2018-12-17T10:43:47.814Z,85.10
2018-12-17T10:46:16.545Z,88.83
2018-12-17T10:48:45.371Z,85.63
2018-12-17T10:51:14.055Z,86.37
2018-12-17T10:53:42.742Z,86.63
2018-12-17T10:56:12.593Z,82.00
2018-12-17T10:58:41.392Z,84.80
2018-12-17T11:01:15.544Z,86.57
2018-12-17T11:03:48.610Z,93.50
2018-12-17T11:06:20.838Z,81.07
2018-12-17T11:08:50.288Z,95.80
2018-12-17T11:11:19.002Z,84.53
2018-12-17T11:13:47.806Z,77.93
2018-12-17T11:16:16.645Z,83.07
2018-12-17T11:18:45.573Z,82.87
2018-12-17T11:21:14.364Z,77.37
2018-12-17T11:23:44.250Z,72.83
2018-12-17T11:26:13.002Z,78.97
2018-12-17T11:28:41.758Z,72.30
2018-12-17T11:31:10.435Z,84.50
2018-12-17T11:33:39.224Z,76.83
2018-12-17T11:36:08.029Z,80.80
2018-12-17T11:38:37.411Z,80.70
2018-12-17T11:41:06.083Z,77.27
2018-12-17T11:43:34.892Z,83.23
2018-12-17T11:46:08.006Z,77.07
2018-12-17T11:48:36.779Z,79.60
2018-12-17T11:51:05.600Z,83.10
2018-12-17T11:53:34.338Z,81.10
2018-12-17T11:56:03.118Z,87.40
2018-12-17T11:58:31.952Z,83.27
2018-12-17T12:01:04.550Z,83.43
2018-12-17T12:03:36.260Z,81.47
2018-12-17T12:06:05.048Z,89.63
2018-12-17T12:08:33.769Z,78.33
2018-12-17T12:11:02.513Z,77.57
2018-12-17T12:13:31.327Z,89.20
2018-12-17T12:16:00.160Z,82.70
2018-12-17T12:18:28.874Z,75.80
2018-12-17T12:20:57.645Z,82.50
2018-12-17T12:23:26.618Z,80.80
2018-12-17T12:25:55.519Z,73.30
2018-12-17T12:28:24.262Z,71.37
2018-12-17T12:31:00.340Z,69.60
2018-12-17T12:33:24.875Z,71.97
2018-12-17T12:35:53.651Z,70.57
2018-12-17T12:38:22.312Z,70.07
2018-12-17T12:40:50.982Z,64.00
2018-12-17T12:43:19.777Z,61.33
2018-12-17T12:45:48.615Z,62.80
2018-12-17T12:48:17.312Z,60.70
2018-12-17T12:50:46.080Z,68.80
2018-12-17T12:53:15.219Z,66.90
2018-12-17T12:55:43.980Z,58.00
2018-12-17T12:58:12.686Z,70.57
2018-12-17T13:00:41.529Z,60.07
2018-12-17T13:03:10.546Z,68.57
2018-12-17T13:05:39.331Z,68.87
2018-12-17T13:08:08.087Z,57.23
2018-12-17T13:10:37.335Z,61.93
2018-12-17T13:13:06.051Z,61.73
2018-12-17T13:15:34.793Z,65.63
2018-12-17T13:18:03.611Z,64.77
2018-12-17T13:20:32.353Z,67.20
2018-12-17T13:23:01.155Z,63.17
2018-12-17T13:25:32.852Z,64.30
2018-12-17T13:28:01.656Z,69.03
2018-12-17T13:30:30.508Z,71.07
2018-12-17T13:32:59.228Z,62.63
2018-12-17T13:35:28.032Z,70.07
2018-12-17T13:37:56.723Z,59.43
2018-12-17T13:40:25.479Z,72.87
2018-12-17T13:42:54.298Z,61.40
2018-12-17T13:45:23.023Z,68.53
2018-12-17T13:47:51.860Z,64.83
2018-12-17T13:50:30.063Z,64.50
2018-12-17T13:53:01.018Z,63.07
2018-12-17T13:55:29.734Z,63.67
2018-12-17T13:57:58.490Z,63.17
2018-12-17T14:00:27.191Z,61.63
2018-12-17T14:02:55.876Z,63.10
2018-12-17T14:05:24.592Z,55.40
2018-12-17T14:07:53.312Z,63.97
2018-12-17T14:10:27.607Z,64.60
2018-12-17T14:12:56.342Z,58.60
2018-12-17T14:15:29.374Z,60.67
2018-12-17T14:17:58.118Z,65.47
2018-12-17T14:20:32.338Z,64.07
2018-12-17T14:23:01.063Z,66.00
2018-12-17T14:25:29.718Z,59.73
2018-12-17T14:27:58.540Z,57.63
2018-12-17T14:30:27.286Z,58.97
2018-12-17T14:32:56.051Z,62.60
2018-12-17T14:35:24.731Z,54.07
2018-12-17T14:37:58.822Z,56.70
2018-12-17T14:40:27.626Z,57.03
2018-12-17T14:42:56.362Z,55.73
2018-12-17T14:45:25.158Z,61.07
2018-12-17T14:47:53.965Z,65.50
2018-12-17T14:50:22.882Z,60.20
2018-12-17T14:52:51.645Z,61.80
2018-12-17T14:55:20.344Z,67.60
2018-12-17T14:57:49.123Z,60.10
2018-12-17T15:00:17.964Z,57.77
2018-12-17T15:02:46.743Z,74.83
2018-12-17T15:05:15.534Z,57.77
2018-12-17T15:07:44.363Z,57.03
2018-12-17T15:10:13.167Z,67.27
2018-12-17T15:12:45.042Z,56.07
2018-12-17T15:15:13.867Z,63.40
2018-12-17T15:17:42.588Z,58.20
2018-12-17T15:20:11.462Z,52.13
2018-12-17T15:22:40.185Z,53.57
2018-12-17T15:25:09.256Z,54.53
2018-12-17T15:27:39.075Z,54.00
2018-12-17T15:30:07.942Z,55.80
2018-12-17T15:32:36.811Z,51.50
2018-12-17T15:35:05.987Z,54.50
2018-12-17T15:37:34.831Z,54.07
2018-12-17T15:40:03.903Z,52.60
2018-12-17T15:42:32.702Z,53.00
2018-12-17T15:45:01.391Z,70.23
2018-12-17T15:47:30.151Z,55.17
2018-12-17T15:49:58.907Z,56.10
2018-12-17T15:52:27.651Z,59.00
2018-12-17T15:54:56.363Z,52.00
2018-12-17T15:57:25.198Z,57.07
2018-12-17T15:59:53.879Z,51.43
2018-12-17T16:02:22.680Z,56.83
2018-12-17T16:04:51.330Z,54.53
2018-12-17T16:07:20.141Z,50.50
2018-12-17T16:09:50.840Z,50.40
2018-12-17T16:12:19.571Z,49.03
2018-12-17T16:14:48.291Z,52.43
2018-12-17T16:17:17.178Z,65.63
2018-12-17T16:19:45.901Z,42.60
2018-12-17T16:22:14.726Z,51.03
2018-12-17T16:24:43.494Z,49.03
2018-12-17T16:27:19.191Z,49.47
2018-12-17T16:29:44.011Z,44.93
2018-12-17T16:32:12.790Z,53.10
2018-12-17T16:34:41.442Z,60.00
2018-12-17T16:37:10.318Z,49.33
2018-12-17T16:39:39.051Z,47.10
2018-12-17T16:42:07.790Z,55.17
2018-12-17T16:44:36.543Z,46.67
2018-12-17T16:47:05.274Z,40.77
2018-12-17T16:49:34.067Z,43.73
2018-12-17T16:52:02.905Z,46.63
2018-12-17T16:54:31.723Z,43.00
2018-12-17T16:57:00.527Z,37.83
2018-12-17T16:59:30.337Z,39.93
2018-12-17T17:02:04.423Z,40.63
2018-12-17T17:04:30.085Z,46.37
2018-12-17T17:06:58.911Z,49.87
2018-12-17T17:09:27.600Z,41.77
2018-12-17T17:11:56.366Z,40.20
2018-12-17T17:14:25.133Z,45.43
2018-12-17T17:16:53.982Z,42.37
2018-12-17T17:19:22.642Z,37.23
2018-12-17T17:21:51.571Z,58.47
2018-12-17T17:24:20.232Z,43.27
2018-12-17T17:26:49.003Z,39.40
2018-12-17T17:29:17.758Z,47.77
2018-12-17T17:31:46.471Z,38.60
2018-12-17T17:34:15.282Z,45.63
2018-12-17T17:36:43.998Z,45.27
2018-12-17T17:39:12.665Z,42.47
2018-12-17T17:41:41.360Z,45.17
2018-12-17T17:44:10.039Z,39.00
2018-12-17T17:46:38.838Z,49.90
2018-12-17T17:49:07.573Z,40.67
2018-12-17T17:51:36.550Z,41.30
2018-12-17T17:54:05.309Z,41.93
2018-12-17T17:56:34.037Z,46.90
2018-12-17T17:59:02.871Z,52.80
2018-12-17T18:01:31.694Z,38.23
2018-12-17T18:04:00.427Z,35.67
2018-12-17T18:06:29.157Z,38.57
2018-12-17T18:08:57.852Z,40.03
2018-12-17T18:11:26.690Z,42.23
2018-12-17T18:13:55.360Z,40.73
2018-12-17T18:16:24.078Z,43.20
2018-12-17T18:18:52.890Z,42.13
2018-12-17T18:21:21.635Z,50.97
2018-12-17T18:23:50.314Z,48.80
2018-12-17T18:26:19.046Z,38.73
2018-12-17T18:28:47.787Z,40.53
2018-12-17T18:31:16.470Z,37.23
2018-12-17T18:33:45.135Z,43.73
2018-12-17T18:36:13.932Z,42.00
2018-12-17T18:38:42.738Z,42.60
2018-12-17T18:41:11.551Z,37.83
2018-12-17T18:43:40.354Z,38.23
2018-12-17T18:46:09.154Z,44.23
2018-12-17T18:48:37.942Z,41.63
2018-12-17T18:51:06.719Z,37.47
2018-12-17T18:53:35.418Z,40.27
2018-12-17T18:56:04.135Z,43.70
2018-12-17T18:58:32.877Z,44.03
2018-12-17T19:01:01.617Z,50.53
2018-12-17T19:03:30.919Z,36.30
2018-12-17T19:05:59.576Z,45.03
2018-12-17T19:08:28.265Z,43.20
2018-12-17T19:10:57.041Z,47.67
2018-12-17T19:13:25.799Z,35.17
2018-12-17T19:15:54.602Z,34.80
2018-12-17T19:18:23.338Z,36.23
2018-12-17T19:20:52.972Z,39.83
2018-12-17T19:23:21.721Z,34.50
2018-12-17T19:25:50.711Z,34.40
2018-12-17T19:28:19.448Z,39.40
2018-12-17T19:30:48.211Z,45.00
2018-12-17T19:33:17.928Z,34.13
2018-12-17T19:35:46.598Z,38.57
2018-12-17T19:38:15.818Z,33.07
2018-12-17T19:40:44.583Z,34.43
2018-12-17T19:43:13.323Z,33.10
2018-12-17T19:45:42.160Z,29.03
2018-12-17T19:48:10.875Z,32.93
2018-12-17T19:50:39.680Z,31.93
2018-12-17T19:53:08.444Z,28.73
2018-12-17T19:55:37.218Z,29.77
2018-12-17T19:58:06.070Z,35.03
2018-12-17T20:00:34.846Z,31.73
2018-12-17T20:03:03.724Z,35.87
2018-12-17T20:05:32.519Z,28.93
2018-12-17T20:08:01.254Z,30.93
2018-12-17T20:10:29.990Z,30.73
2018-12-17T20:12:58.791Z,31.47
2018-12-17T20:15:27.579Z,31.77
2018-12-17T20:17:56.294Z,34.90
2018-12-17T20:20:25.125Z,32.60
2018-12-17T20:22:53.999Z,35.00
2018-12-17T20:25:22.769Z,31.80
2018-12-17T20:27:51.509Z,39.17
2018-12-17T20:30:20.322Z,29.53
2018-12-17T20:32:53.502Z,31.67
2018-12-17T20:35:19.765Z,36.53
2018-12-17T20:37:48.435Z,37.63
2018-12-17T20:40:17.123Z,36.40
2018-12-17T20:42:45.838Z,34.03
2018-12-17T20:45:14.631Z,40.97
2018-12-17T20:47:43.358Z,32.17
2018-12-17T20:50:12.112Z,32.50
2018-12-17T20:52:40.881Z,38.03
2018-12-17T20:55:09.695Z,37.27
2018-12-17T20:57:39.466Z,39.00
2018-12-17T21:00:08.394Z,36.23
2018-12-17T21:02:37.155Z,36.73
2018-12-17T21:05:06.358Z,36.57
2018-12-17T21:07:35.088Z,38.00
2018-12-17T21:10:04.341Z,38.67
2018-12-17T21:12:33.025Z,37.03
2018-12-17T21:15:01.721Z,41.13
2018-12-17T21:17:31.176Z,37.10
2018-12-17T21:20:00.029Z,33.63
2018-12-17T21:22:28.764Z,43.43
2018-12-17T21:24:57.482Z,38.10
2018-12-17T21:27:26.141Z,37.23
2018-12-17T21:29:54.802Z,42.87
2018-12-17T21:32:24.471Z,39.43
2018-12-17T21:34:53.194Z,33.57
2018-12-17T21:37:21.898Z,42.93
2018-12-17T21:39:50.639Z,44.20
2018-12-17T21:42:19.517Z,42.13
2018-12-17T21:44:48.239Z,38.83
2018-12-17T21:47:16.982Z,37.70
2018-12-17T21:49:45.649Z,43.70
2018-12-17T21:52:14.514Z,35.07
2018-12-17T21:54:43.182Z,36.90
2018-12-17T21:57:11.879Z,34.27
2018-12-17T21:59:40.706Z,39.83
2018-12-17T22:02:09.577Z,41.50
2018-12-17T22:04:38.595Z,39.97
2018-12-17T22:07:07.543Z,42.97
2018-12-17T22:09:36.355Z,42.87
2018-12-17T22:12:05.119Z,36.90
2018-12-17T22:14:33.891Z,37.67
2018-12-17T22:17:02.726Z,38.20
2018-12-17T22:19:31.510Z,41.50
2018-12-17T22:22:00.291Z,35.27
2018-12-17T22:24:29.108Z,40.00
2018-12-17T22:26:57.862Z,40.30
2018-12-17T22:29:26.690Z,40.43
2018-12-17T22:31:55.632Z,33.57
2018-12-17T22:34:24.377Z,35.70
2018-12-17T22:36:53.127Z,38.30
2018-12-17T22:39:21.855Z,39.13
2018-12-17T22:41:50.566Z,41.07
2018-12-17T22:44:19.271Z,36.00
2018-12-17T22:46:48.102Z,41.27
2018-12-17T22:49:16.874Z,36.60
2018-12-17T22:51:45.638Z,39.10
2018-12-17T22:54:14.345Z,34.20
2018-12-17T22:56:43.151Z,34.53
2018-12-17T22:59:11.877Z,34.60
2018-12-17T23:01:40.761Z,37.90
2018-12-17T23:04:09.580Z,37.87
2018-12-17T23:06:38.243Z,36.77
2018-12-17T23:09:07.777Z,36.70
2018-12-17T23:11:55.280Z,36.90
2018-12-17T23:14:35.605Z,45.20
2018-12-17T23:17:15.758Z,36.50
2018-12-17T23:19:46.366Z,32.70
2018-12-17T23:22:17.108Z,37.43
2018-12-17T23:24:47.863Z,38.57
2018-12-17T23:27:17.618Z,37.87
2018-12-17T23:29:46.811Z,49.60
2018-12-17T23:32:15.629Z,35.93
2018-12-17T23:34:44.507Z,52.93
2018-12-17T23:37:13.249Z,37.33
2018-12-17T23:39:41.947Z,37.90
2018-12-17T23:42:10.665Z,32.47
2018-12-17T23:44:39.429Z,45.57
2018-12-17T23:47:08.227Z,43.60
2018-12-17T23:49:36.927Z,39.20
2018-12-17T23:52:05.685Z,34.33
2018-12-17T23:54:34.471Z,40.90
2018-12-17T23:57:03.275Z,45.70
2018-12-17T23:59:32.094Z,43.47
